sensor_id;sensor_type;location;lat;lon;timestamp;P1;durP1;ratioP1;P2;durP2;ratioP2
10122;SDS011;5101;49.038;8.710;2023-02-11T00:00:33;32.73;;;21.97;;
10122;SDS011;5101;49.038;8.710;2023-02-11T00:02:59;38.70;;;21.83;;
10122;SDS011;5101;49.038;8.710;2023-02-11T00:05:24;33.40;;;21.07;;
10122;SDS011;5101;49.038;8.710;2023-02-11T00:07:50;39.03;;;23.03;;
10122;SDS011;5101;49.038;8.710;2023-02-11T00:10:15;36.57;;;22.13;;
10122;SDS011;5101;49.038;8.710;2023-02-11T00:12:41;33.40;;;21.40;;
10122;SDS011;5101;49.038;8.710;2023-02-11T00:15:07;33.70;;;20.67;;
10122;SDS011;5101;49.038;8.710;2023-02-11T00:17:34;34.13;;;21.53;;
10122;SDS011;5101;49.038;8.710;2023-02-11T00:19:59;33.63;;;22.53;;
10122;SDS011;5101;49.038;8.710;2023-02-11T00:25:00;33.33;;;20.90;;
10122;SDS011;5101;49.038;8.710;2023-02-11T00:27:26;32.77;;;21.50;;
10122;SDS011;5101;49.038;8.710;2023-02-11T00:29:51;37.43;;;22.17;;
10122;SDS011;5101;49.038;8.710;2023-02-11T00:32:17;34.30;;;21.23;;
10122;SDS011;5101;49.038;8.710;2023-02-11T00:34:42;35.00;;;21.50;;
10122;SDS011;5101;49.038;8.710;2023-02-11T00:37:08;32.77;;;21.60;;
10122;SDS011;5101;49.038;8.710;2023-02-11T00:39:34;35.30;;;22.07;;
10122;SDS011;5101;49.038;8.710;2023-02-11T00:42:00;33.50;;;22.23;;
10122;SDS011;5101;49.038;8.710;2023-02-11T00:44:26;34.50;;;21.17;;
10122;SDS011;5101;49.038;8.710;2023-02-11T00:46:51;31.50;;;20.27;;
10122;SDS011;5101;49.038;8.710;2023-02-11T00:49:17;32.73;;;21.10;;
10122;SDS011;5101;49.038;8.710;2023-02-11T00:51:43;30.57;;;20.30;;
10122;SDS011;5101;49.038;8.710;2023-02-11T00:54:08;29.40;;;20.30;;
10122;SDS011;5101;49.038;8.710;2023-02-11T00:56:34;34.40;;;20.77;;
10122;SDS011;5101;49.038;8.710;2023-02-11T00:59:00;30.30;;;19.73;;
10122;SDS011;5101;49.038;8.710;2023-02-11T01:01:25;29.77;;;20.37;;
10122;SDS011;5101;49.038;8.710;2023-02-11T01:03:51;32.70;;;19.87;;
10122;SDS011;5101;49.038;8.710;2023-02-11T01:06:16;34.00;;;21.40;;
10122;SDS011;5101;49.038;8.710;2023-02-11T01:08:42;30.83;;;20.13;;
10122;SDS011;5101;49.038;8.710;2023-02-11T01:11:11;32.70;;;20.63;;
10122;SDS011;5101;49.038;8.710;2023-02-11T01:13:40;31.93;;;19.33;;
10122;SDS011;5101;49.038;8.710;2023-02-11T01:16:06;29.47;;;18.97;;
10122;SDS011;5101;49.038;8.710;2023-02-11T01:18:32;31.07;;;20.27;;
10122;SDS011;5101;49.038;8.710;2023-02-11T01:20:58;27.60;;;18.37;;
10122;SDS011;5101;49.038;8.710;2023-02-11T01:23:24;26.83;;;18.30;;
10122;SDS011;5101;49.038;8.710;2023-02-11T01:25:49;27.67;;;17.60;;
10122;SDS011;5101;49.038;8.710;2023-02-11T01:28:17;28.10;;;16.87;;
10122;SDS011;5101;49.038;8.710;2023-02-11T01:30:44;25.53;;;17.30;;
10122;SDS011;5101;49.038;8.710;2023-02-11T01:33:09;25.37;;;16.93;;
10122;SDS011;5101;49.038;8.710;2023-02-11T01:35:36;30.07;;;18.43;;
10122;SDS011;5101;49.038;8.710;2023-02-11T01:38:02;31.23;;;18.17;;
10122;SDS011;5101;49.038;8.710;2023-02-11T01:40:28;30.60;;;18.13;;
10122;SDS011;5101;49.038;8.710;2023-02-11T01:42:53;26.13;;;16.27;;
10122;SDS011;5101;49.038;8.710;2023-02-11T01:45:53;26.63;;;16.73;;
10122;SDS011;5101;49.038;8.710;2023-02-11T01:48:12;23.80;;;15.63;;
10122;SDS011;5101;49.038;8.710;2023-02-11T01:50:42;23.97;;;15.40;;
10122;SDS011;5101;49.038;8.710;2023-02-11T01:53:08;25.20;;;16.07;;
10122;SDS011;5101;49.038;8.710;2023-02-11T01:55:53;24.20;;;15.77;;
10122;SDS011;5101;49.038;8.710;2023-02-11T01:58:40;23.63;;;16.13;;
10122;SDS011;5101;49.038;8.710;2023-02-11T02:01:07;25.30;;;16.70;;
10122;SDS011;5101;49.038;8.710;2023-02-11T02:03:35;23.10;;;16.43;;
10122;SDS011;5101;49.038;8.710;2023-02-11T02:06:09;27.10;;;17.10;;
10122;SDS011;5101;49.038;8.710;2023-02-11T02:08:42;25.70;;;16.13;;
10122;SDS011;5101;49.038;8.710;2023-02-11T02:11:15;25.30;;;16.20;;
10122;SDS011;5101;49.038;8.710;2023-02-11T02:13:40;25.43;;;15.37;;
10122;SDS011;5101;49.038;8.710;2023-02-11T02:16:12;24.80;;;15.37;;
10122;SDS011;5101;49.038;8.710;2023-02-11T02:21:28;22.60;;;14.83;;
10122;SDS011;5101;49.038;8.710;2023-02-11T02:31:53;25.63;;;16.33;;
10122;SDS011;5101;49.038;8.710;2023-02-11T02:34:33;26.63;;;16.67;;
10122;SDS011;5101;49.038;8.710;2023-02-11T02:37:07;25.53;;;16.17;;
10122;SDS011;5101;49.038;8.710;2023-02-11T02:39:41;24.67;;;15.40;;
10122;SDS011;5101;49.038;8.710;2023-02-11T02:42:09;25.03;;;15.57;;
10122;SDS011;5101;49.038;8.710;2023-02-11T02:44:35;24.80;;;15.53;;
10122;SDS011;5101;49.038;8.710;2023-02-11T02:47:00;25.27;;;16.17;;
10122;SDS011;5101;49.038;8.710;2023-02-11T02:49:26;25.67;;;16.30;;
10122;SDS011;5101;49.038;8.710;2023-02-11T03:00:36;24.13;;;15.13;;
10122;SDS011;5101;49.038;8.710;2023-02-11T03:06:19;26.27;;;15.23;;
10122;SDS011;5101;49.038;8.710;2023-02-11T03:11:55;22.97;;;14.33;;
10122;SDS011;5101;49.038;8.710;2023-02-11T03:14:21;22.33;;;14.67;;
10122;SDS011;5101;49.038;8.710;2023-02-11T03:16:50;23.63;;;13.80;;
10122;SDS011;5101;49.038;8.710;2023-02-11T03:19:19;22.47;;;14.13;;
10122;SDS011;5101;49.038;8.710;2023-02-11T03:21:47;22.57;;;14.53;;
10122;SDS011;5101;49.038;8.710;2023-02-11T03:24:17;23.90;;;13.83;;
10122;SDS011;5101;49.038;8.710;2023-02-11T03:27:07;20.67;;;13.03;;
10122;SDS011;5101;49.038;8.710;2023-02-11T03:29:42;22.87;;;13.10;;
10122;SDS011;5101;49.038;8.710;2023-02-11T03:32:17;18.37;;;12.63;;
10122;SDS011;5101;49.038;8.710;2023-02-11T03:37:52;20.23;;;12.23;;
10122;SDS011;5101;49.038;8.710;2023-02-11T03:40:40;22.53;;;13.33;;
10122;SDS011;5101;49.038;8.710;2023-02-11T03:43:09;20.90;;;13.20;;
10122;SDS011;5101;49.038;8.710;2023-02-11T03:45:41;22.10;;;12.83;;
10122;SDS011;5101;49.038;8.710;2023-02-11T03:48:12;23.37;;;13.73;;
10122;SDS011;5101;49.038;8.710;2023-02-11T03:50:40;19.50;;;12.67;;
10122;SDS011;5101;49.038;8.710;2023-02-11T03:53:07;21.03;;;12.87;;
10122;SDS011;5101;49.038;8.710;2023-02-11T03:55:35;23.57;;;12.53;;
10122;SDS011;5101;49.038;8.710;2023-02-11T03:58:03;21.63;;;12.83;;
10122;SDS011;5101;49.038;8.710;2023-02-11T04:00:30;19.73;;;12.27;;
10122;SDS011;5101;49.038;8.710;2023-02-11T04:02:57;21.33;;;13.00;;
10122;SDS011;5101;49.038;8.710;2023-02-11T04:05:23;22.77;;;13.50;;
10122;SDS011;5101;49.038;8.710;2023-02-11T04:07:49;19.77;;;12.77;;
10122;SDS011;5101;49.038;8.710;2023-02-11T04:10:14;19.93;;;12.20;;
10122;SDS011;5101;49.038;8.710;2023-02-11T04:12:40;21.33;;;12.50;;
10122;SDS011;5101;49.038;8.710;2023-02-11T04:15:05;25.03;;;13.97;;
10122;SDS011;5101;49.038;8.710;2023-02-11T04:17:31;25.40;;;15.93;;
10122;SDS011;5101;49.038;8.710;2023-02-11T04:19:57;30.70;;;18.97;;
10122;SDS011;5101;49.038;8.710;2023-02-11T04:22:22;27.53;;;17.50;;
10122;SDS011;5101;49.038;8.710;2023-02-11T04:24:48;26.97;;;17.17;;
10122;SDS011;5101;49.038;8.710;2023-02-11T04:27:13;22.00;;;14.73;;
10122;SDS011;5101;49.038;8.710;2023-02-11T04:29:39;24.07;;;15.80;;
10122;SDS011;5101;49.038;8.710;2023-02-11T04:32:05;23.57;;;15.63;;
10122;SDS011;5101;49.038;8.710;2023-02-11T04:34:30;23.93;;;15.57;;
10122;SDS011;5101;49.038;8.710;2023-02-11T04:36:55;22.43;;;14.67;;
10122;SDS011;5101;49.038;8.710;2023-02-11T04:39:21;19.83;;;13.80;;
10122;SDS011;5101;49.038;8.710;2023-02-11T04:41:46;17.90;;;13.10;;
10122;SDS011;5101;49.038;8.710;2023-02-11T04:44:12;17.83;;;12.17;;
10122;SDS011;5101;49.038;8.710;2023-02-11T04:46:37;19.23;;;13.73;;
10122;SDS011;5101;49.038;8.710;2023-02-11T04:49:03;20.50;;;13.37;;
10122;SDS011;5101;49.038;8.710;2023-02-11T04:51:29;22.57;;;13.30;;
10122;SDS011;5101;49.038;8.710;2023-02-11T04:53:54;20.20;;;13.20;;
10122;SDS011;5101;49.038;8.710;2023-02-11T04:56:20;20.17;;;13.47;;
10122;SDS011;5101;49.038;8.710;2023-02-11T04:58:45;22.20;;;13.87;;
10122;SDS011;5101;49.038;8.710;2023-02-11T05:01:12;24.63;;;14.33;;
10122;SDS011;5101;49.038;8.710;2023-02-11T05:03:39;22.93;;;13.30;;
10122;SDS011;5101;49.038;8.710;2023-02-11T05:06:05;18.13;;;11.93;;
10122;SDS011;5101;49.038;8.710;2023-02-11T05:08:31;19.80;;;12.47;;
10122;SDS011;5101;49.038;8.710;2023-02-11T05:10:57;19.37;;;13.80;;
10122;SDS011;5101;49.038;8.710;2023-02-11T05:13:23;23.43;;;12.97;;
10122;SDS011;5101;49.038;8.710;2023-02-11T05:15:49;22.37;;;14.00;;
10122;SDS011;5101;49.038;8.710;2023-02-11T05:18:14;22.83;;;14.07;;
10122;SDS011;5101;49.038;8.710;2023-02-11T05:20:40;22.03;;;13.70;;
10122;SDS011;5101;49.038;8.710;2023-02-11T05:23:07;21.47;;;13.23;;
10122;SDS011;5101;49.038;8.710;2023-02-11T05:25:32;20.33;;;12.83;;
10122;SDS011;5101;49.038;8.710;2023-02-11T05:27:58;17.80;;;12.20;;
10122;SDS011;5101;49.038;8.710;2023-02-11T05:30:24;20.27;;;11.97;;
10122;SDS011;5101;49.038;8.710;2023-02-11T05:32:49;18.30;;;12.10;;
10122;SDS011;5101;49.038;8.710;2023-02-11T05:35:15;17.63;;;11.30;;
10122;SDS011;5101;49.038;8.710;2023-02-11T05:37:41;18.03;;;11.93;;
10122;SDS011;5101;49.038;8.710;2023-02-11T05:40:06;17.50;;;11.30;;
10122;SDS011;5101;49.038;8.710;2023-02-11T05:42:32;15.80;;;9.57;;
10122;SDS011;5101;49.038;8.710;2023-02-11T05:44:57;16.97;;;10.70;;
10122;SDS011;5101;49.038;8.710;2023-02-11T05:47:23;15.07;;;10.50;;
10122;SDS011;5101;49.038;8.710;2023-02-11T05:49:49;17.23;;;10.67;;
10122;SDS011;5101;49.038;8.710;2023-02-11T05:52:15;16.20;;;10.67;;
10122;SDS011;5101;49.038;8.710;2023-02-11T05:54:40;17.60;;;11.17;;
10122;SDS011;5101;49.038;8.710;2023-02-11T05:57:06;15.40;;;10.43;;
10122;SDS011;5101;49.038;8.710;2023-02-11T05:59:31;15.83;;;10.53;;
10122;SDS011;5101;49.038;8.710;2023-02-11T06:01:57;15.10;;;10.03;;
10122;SDS011;5101;49.038;8.710;2023-02-11T06:04:22;15.03;;;9.97;;
10122;SDS011;5101;49.038;8.710;2023-02-11T06:06:48;17.00;;;10.70;;
10122;SDS011;5101;49.038;8.710;2023-02-11T06:09:13;17.13;;;10.83;;
10122;SDS011;5101;49.038;8.710;2023-02-11T06:11:39;12.77;;;9.70;;
10122;SDS011;5101;49.038;8.710;2023-02-11T06:14:04;14.97;;;10.17;;
10122;SDS011;5101;49.038;8.710;2023-02-11T06:16:30;14.93;;;10.37;;
10122;SDS011;5101;49.038;8.710;2023-02-11T06:18:55;16.43;;;10.47;;
10122;SDS011;5101;49.038;8.710;2023-02-11T06:21:21;17.37;;;10.07;;
10122;SDS011;5101;49.038;8.710;2023-02-11T06:23:46;13.37;;;8.87;;
10122;SDS011;5101;49.038;8.710;2023-02-11T06:26:20;15.57;;;10.10;;
10122;SDS011;5101;49.038;8.710;2023-02-11T06:28:46;12.93;;;8.90;;
10122;SDS011;5101;49.038;8.710;2023-02-11T06:31:12;14.70;;;9.70;;
10122;SDS011;5101;49.038;8.710;2023-02-11T06:33:38;14.80;;;9.57;;
10122;SDS011;5101;49.038;8.710;2023-02-11T06:36:04;12.93;;;9.23;;
10122;SDS011;5101;49.038;8.710;2023-02-11T06:38:35;14.03;;;9.70;;
10122;SDS011;5101;49.038;8.710;2023-02-11T06:41:01;16.30;;;10.37;;
10122;SDS011;5101;49.038;8.710;2023-02-11T06:43:27;12.73;;;9.17;;
10122;SDS011;5101;49.038;8.710;2023-02-11T06:45:52;13.90;;;9.47;;
10122;SDS011;5101;49.038;8.710;2023-02-11T06:48:19;14.43;;;9.17;;
10122;SDS011;5101;49.038;8.710;2023-02-11T06:50:45;15.00;;;10.23;;
10122;SDS011;5101;49.038;8.710;2023-02-11T06:53:10;16.03;;;10.30;;
10122;SDS011;5101;49.038;8.710;2023-02-11T06:55:36;13.63;;;9.47;;
10122;SDS011;5101;49.038;8.710;2023-02-11T06:58:01;16.00;;;9.87;;
10122;SDS011;5101;49.038;8.710;2023-02-11T07:00:27;14.97;;;9.73;;
10122;SDS011;5101;49.038;8.710;2023-02-11T07:02:53;17.23;;;10.30;;
10122;SDS011;5101;49.038;8.710;2023-02-11T07:05:19;15.10;;;9.77;;
10122;SDS011;5101;49.038;8.710;2023-02-11T07:07:45;16.27;;;9.97;;
10122;SDS011;5101;49.038;8.710;2023-02-11T07:10:11;14.37;;;9.20;;
10122;SDS011;5101;49.038;8.710;2023-02-11T07:12:37;15.87;;;9.77;;
10122;SDS011;5101;49.038;8.710;2023-02-11T07:15:03;14.83;;;9.93;;
10122;SDS011;5101;49.038;8.710;2023-02-11T07:17:29;15.47;;;9.90;;
10122;SDS011;5101;49.038;8.710;2023-02-11T07:19:54;12.60;;;8.93;;
10122;SDS011;5101;49.038;8.710;2023-02-11T07:22:20;14.57;;;9.10;;
10122;SDS011;5101;49.038;8.710;2023-02-11T07:24:45;15.20;;;10.00;;
10122;SDS011;5101;49.038;8.710;2023-02-11T07:27:11;16.00;;;9.90;;
10122;SDS011;5101;49.038;8.710;2023-02-11T07:29:36;16.17;;;11.03;;
10122;SDS011;5101;49.038;8.710;2023-02-11T07:32:02;15.60;;;10.60;;
10122;SDS011;5101;49.038;8.710;2023-02-11T07:34:27;22.23;;;11.17;;
10122;SDS011;5101;49.038;8.710;2023-02-11T07:36:53;16.90;;;11.40;;
10122;SDS011;5101;49.038;8.710;2023-02-11T07:39:18;16.60;;;11.03;;
10122;SDS011;5101;49.038;8.710;2023-02-11T07:41:46;15.67;;;11.13;;
10122;SDS011;5101;49.038;8.710;2023-02-11T07:44:13;16.80;;;10.30;;
10122;SDS011;5101;49.038;8.710;2023-02-11T07:46:38;13.00;;;9.90;;
10122;SDS011;5101;49.038;8.710;2023-02-11T07:49:08;16.13;;;11.17;;
10122;SDS011;5101;49.038;8.710;2023-02-11T07:51:34;18.87;;;11.40;;
10122;SDS011;5101;49.038;8.710;2023-02-11T07:53:59;19.13;;;10.77;;
10122;SDS011;5101;49.038;8.710;2023-02-11T07:56:25;11.63;;;8.33;;
10122;SDS011;5101;49.038;8.710;2023-02-11T07:58:51;16.83;;;11.97;;
10122;SDS011;5101;49.038;8.710;2023-02-11T08:01:18;20.63;;;11.10;;
10122;SDS011;5101;49.038;8.710;2023-02-11T08:03:46;19.00;;;11.93;;
10122;SDS011;5101;49.038;8.710;2023-02-11T08:06:13;28.10;;;11.50;;
10122;SDS011;5101;49.038;8.710;2023-02-11T08:08:41;15.60;;;10.80;;
10122;SDS011;5101;49.038;8.710;2023-02-11T08:11:07;17.40;;;11.53;;
10122;SDS011;5101;49.038;8.710;2023-02-11T08:13:37;17.07;;;10.20;;
10122;SDS011;5101;49.038;8.710;2023-02-11T08:16:03;19.37;;;10.30;;
10122;SDS011;5101;49.038;8.710;2023-02-11T08:18:30;21.50;;;14.90;;
10122;SDS011;5101;49.038;8.710;2023-02-11T08:20:56;15.43;;;9.47;;
10122;SDS011;5101;49.038;8.710;2023-02-11T08:23:28;14.50;;;10.20;;
10122;SDS011;5101;49.038;8.710;2023-02-11T08:25:54;16.13;;;11.47;;
10122;SDS011;5101;49.038;8.710;2023-02-11T08:28:19;16.20;;;10.97;;
10122;SDS011;5101;49.038;8.710;2023-02-11T08:30:44;14.33;;;10.87;;
10122;SDS011;5101;49.038;8.710;2023-02-11T08:33:10;14.37;;;10.40;;
10122;SDS011;5101;49.038;8.710;2023-02-11T08:35:35;14.97;;;10.23;;
10122;SDS011;5101;49.038;8.710;2023-02-11T08:38:03;13.53;;;9.80;;
10122;SDS011;5101;49.038;8.710;2023-02-11T08:40:29;15.47;;;9.57;;
10122;SDS011;5101;49.038;8.710;2023-02-11T08:42:54;15.63;;;9.73;;
10122;SDS011;5101;49.038;8.710;2023-02-11T08:45:20;17.80;;;12.93;;
10122;SDS011;5101;49.038;8.710;2023-02-11T08:47:45;12.07;;;8.87;;
10122;SDS011;5101;49.038;8.710;2023-02-11T08:50:11;14.37;;;9.93;;
10122;SDS011;5101;49.038;8.710;2023-02-11T08:52:36;15.27;;;9.20;;
10122;SDS011;5101;49.038;8.710;2023-02-11T08:55:02;14.30;;;9.50;;
10122;SDS011;5101;49.038;8.710;2023-02-11T08:57:27;13.10;;;8.97;;
10122;SDS011;5101;49.038;8.710;2023-02-11T08:59:53;16.93;;;12.57;;
10122;SDS011;5101;49.038;8.710;2023-02-11T09:02:18;11.77;;;8.10;;
10122;SDS011;5101;49.038;8.710;2023-02-11T09:04:44;10.60;;;7.93;;
10122;SDS011;5101;49.038;8.710;2023-02-11T09:07:09;13.97;;;8.53;;
10122;SDS011;5101;49.038;8.710;2023-02-11T09:09:36;13.93;;;10.93;;
10122;SDS011;5101;49.038;8.710;2023-02-11T09:12:02;9.87;;;7.50;;
10122;SDS011;5101;49.038;8.710;2023-02-11T09:14:27;13.27;;;7.87;;
10122;SDS011;5101;49.038;8.710;2023-02-11T09:16:53;10.07;;;7.90;;
10122;SDS011;5101;49.038;8.710;2023-02-11T09:19:18;9.40;;;7.47;;
10122;SDS011;5101;49.038;8.710;2023-02-11T09:21:44;9.50;;;6.37;;
10122;SDS011;5101;49.038;8.710;2023-02-11T09:24:10;10.57;;;7.60;;
10122;SDS011;5101;49.038;8.710;2023-02-11T09:26:36;15.23;;;12.30;;
10122;SDS011;5101;49.038;8.710;2023-02-11T09:29:03;11.23;;;7.40;;
10122;SDS011;5101;49.038;8.710;2023-02-11T09:31:29;10.57;;;7.88;;
10122;SDS011;5101;49.038;8.710;2023-02-11T09:34:00;9.45;;;7.45;;
10122;SDS011;5101;49.038;8.710;2023-02-11T09:36:29;8.18;;;7.00;;
10122;SDS011;5101;49.038;8.710;2023-02-11T09:38:57;8.93;;;6.90;;
10122;SDS011;5101;49.038;8.710;2023-02-11T09:44:18;9.57;;;7.00;;
10122;SDS011;5101;49.038;8.710;2023-02-11T09:46:46;8.77;;;7.10;;
10122;SDS011;5101;49.038;8.710;2023-02-11T09:49:20;10.38;;;7.28;;
10122;SDS011;5101;49.038;8.710;2023-02-11T09:52:28;10.05;;;8.07;;
10122;SDS011;5101;49.038;8.710;2023-02-11T09:54:57;10.45;;;6.90;;
10122;SDS011;5101;49.038;8.710;2023-02-11T09:57:30;13.00;;;6.95;;
10122;SDS011;5101;49.038;8.710;2023-02-11T09:59:58;8.63;;;6.85;;
10122;SDS011;5101;49.038;8.710;2023-02-11T10:02:27;8.85;;;7.25;;
10122;SDS011;5101;49.038;8.710;2023-02-11T10:05:11;11.63;;;7.15;;
10122;SDS011;5101;49.038;8.710;2023-02-11T10:08:13;10.43;;;7.40;;
10122;SDS011;5101;49.038;8.710;2023-02-11T10:11:11;7.47;;;6.47;;
10122;SDS011;5101;49.038;8.710;2023-02-11T10:16:41;10.10;;;6.70;;
10122;SDS011;5101;49.038;8.710;2023-02-11T10:19:41;7.93;;;6.60;;
10122;SDS011;5101;49.038;8.710;2023-02-11T10:22:34;11.95;;;6.50;;
10122;SDS011;5101;49.038;8.710;2023-02-11T10:27:45;11.63;;;6.80;;
10122;SDS011;5101;49.038;8.710;2023-02-11T10:32:59;9.60;;;6.95;;
10122;SDS011;5101;49.038;8.710;2023-02-11T10:35:29;8.57;;;7.00;;
10122;SDS011;5101;49.038;8.710;2023-02-11T10:37:56;10.45;;;7.78;;
10122;SDS011;5101;49.038;8.710;2023-02-11T10:40:24;8.75;;;7.30;;
10122;SDS011;5101;49.038;8.710;2023-02-11T10:42:53;11.13;;;8.13;;
10122;SDS011;5101;49.038;8.710;2023-02-11T10:45:32;11.65;;;8.15;;
10122;SDS011;5101;49.038;8.710;2023-02-11T10:48:05;9.65;;;7.70;;
10122;SDS011;5101;49.038;8.710;2023-02-11T10:50:50;8.85;;;7.00;;
10122;SDS011;5101;49.038;8.710;2023-02-11T10:53:36;10.30;;;8.23;;
10122;SDS011;5101;49.038;8.710;2023-02-11T10:56:02;13.30;;;7.65;;
10122;SDS011;5101;49.038;8.710;2023-02-11T10:58:30;13.23;;;8.32;;
10122;SDS011;5101;49.038;8.710;2023-02-11T11:01:04;10.57;;;7.97;;
10122;SDS011;5101;49.038;8.710;2023-02-11T11:03:35;12.40;;;7.85;;
10122;SDS011;5101;49.038;8.710;2023-02-11T11:06:10;9.60;;;7.78;;
10122;SDS011;5101;49.038;8.710;2023-02-11T11:11:13;9.55;;;7.07;;
10122;SDS011;5101;49.038;8.710;2023-02-11T11:13:41;10.82;;;7.18;;
10122;SDS011;5101;49.038;8.710;2023-02-11T11:21:40;11.13;;;8.25;;
10122;SDS011;5101;49.038;8.710;2023-02-11T11:24:15;10.90;;;8.35;;
10122;SDS011;5101;49.038;8.710;2023-02-11T11:26:51;9.93;;;7.63;;
10122;SDS011;5101;49.038;8.710;2023-02-11T11:29:23;9.32;;;8.30;;
10122;SDS011;5101;49.038;8.710;2023-02-11T11:32:23;10.25;;;8.75;;
10122;SDS011;5101;49.038;8.710;2023-02-11T11:34:52;8.68;;;7.57;;
10122;SDS011;5101;49.038;8.710;2023-02-11T11:37:26;9.75;;;8.02;;
10122;SDS011;5101;49.038;8.710;2023-02-11T11:40:07;9.95;;;8.93;;
10122;SDS011;5101;49.038;8.710;2023-02-11T11:42:39;10.98;;;8.43;;
10122;SDS011;5101;49.038;8.710;2023-02-11T11:50:52;11.07;;;8.00;;
10122;SDS011;5101;49.038;8.710;2023-02-11T11:56:05;10.52;;;8.27;;
10122;SDS011;5101;49.038;8.710;2023-02-11T11:58:39;10.43;;;8.75;;
10122;SDS011;5101;49.038;8.710;2023-02-11T12:01:09;12.00;;;8.13;;
10122;SDS011;5101;49.038;8.710;2023-02-11T12:03:57;9.80;;;8.48;;
10122;SDS011;5101;49.038;8.710;2023-02-11T12:06:34;9.85;;;8.30;;
10122;SDS011;5101;49.038;8.710;2023-02-11T12:26:13;11.77;;;9.65;;
10122;SDS011;5101;49.038;8.710;2023-02-11T12:36:42;11.88;;;9.40;;
10122;SDS011;5101;49.038;8.710;2023-02-11T12:42:15;12.18;;;8.52;;
10122;SDS011;5101;49.038;8.710;2023-02-11T12:48:35;11.73;;;9.25;;
10122;SDS011;5101;49.038;8.710;2023-02-11T12:51:20;11.60;;;9.30;;
10122;SDS011;5101;49.038;8.710;2023-02-11T12:56:51;14.60;;;9.75;;
10122;SDS011;5101;49.038;8.710;2023-02-11T13:02:33;12.43;;;9.77;;
10122;SDS011;5101;49.038;8.710;2023-02-11T13:05:26;13.38;;;10.60;;
10122;SDS011;5101;49.038;8.710;2023-02-11T13:07:53;13.35;;;10.45;;
10122;SDS011;5101;49.038;8.710;2023-02-11T13:10:37;12.98;;;11.15;;
10122;SDS011;5101;49.038;8.710;2023-02-11T13:13:18;11.63;;;10.38;;
10122;SDS011;5101;49.038;8.710;2023-02-11T13:16:01;12.50;;;10.85;;
10122;SDS011;5101;49.038;8.710;2023-02-11T13:21:15;13.18;;;11.02;;
10122;SDS011;5101;49.038;8.710;2023-02-11T13:26:26;14.82;;;11.50;;
10122;SDS011;5101;49.038;8.710;2023-02-11T13:31:38;12.75;;;11.13;;
10122;SDS011;5101;49.038;8.710;2023-02-11T13:34:03;15.25;;;11.18;;
10122;SDS011;5101;49.038;8.710;2023-02-11T13:36:55;13.45;;;11.10;;
10122;SDS011;5101;49.038;8.710;2023-02-11T13:39:21;12.45;;;11.10;;
10122;SDS011;5101;49.038;8.710;2023-02-11T13:41:47;14.40;;;11.00;;
10122;SDS011;5101;49.038;8.710;2023-02-11T13:46:56;13.07;;;11.00;;
10122;SDS011;5101;49.038;8.710;2023-02-11T13:49:29;15.43;;;11.75;;
10122;SDS011;5101;49.038;8.710;2023-02-11T13:51:57;16.17;;;12.00;;
10122;SDS011;5101;49.038;8.710;2023-02-11T13:54:29;13.23;;;11.02;;
10122;SDS011;5101;49.038;8.710;2023-02-11T13:59:52;13.25;;;11.20;;
10122;SDS011;5101;49.038;8.710;2023-02-11T14:05:23;13.70;;;11.52;;
10122;SDS011;5101;49.038;8.710;2023-02-11T14:16:02;14.48;;;11.77;;
10122;SDS011;5101;49.038;8.710;2023-02-11T14:21:16;15.13;;;11.82;;
10122;SDS011;5101;49.038;8.710;2023-02-11T14:23:47;13.15;;;11.68;;
10122;SDS011;5101;49.038;8.710;2023-02-11T14:28:53;15.85;;;12.40;;
10122;SDS011;5101;49.038;8.710;2023-02-11T14:31:23;15.13;;;12.30;;
10122;SDS011;5101;49.038;8.710;2023-02-11T14:36:58;14.75;;;11.57;;
10122;SDS011;5101;49.038;8.710;2023-02-11T14:39:47;13.02;;;11.60;;
10122;SDS011;5101;49.038;8.710;2023-02-11T14:42:18;15.00;;;12.18;;
10122;SDS011;5101;49.038;8.710;2023-02-11T14:44:49;14.48;;;12.55;;
10122;SDS011;5101;49.038;8.710;2023-02-11T14:47:21;13.60;;;11.80;;
10122;SDS011;5101;49.038;8.710;2023-02-11T14:49:51;15.02;;;12.10;;
10122;SDS011;5101;49.038;8.710;2023-02-11T14:52:39;15.50;;;12.20;;
10122;SDS011;5101;49.038;8.710;2023-02-11T14:55:14;13.75;;;11.73;;
10122;SDS011;5101;49.038;8.710;2023-02-11T15:00:52;17.55;;;12.20;;
10122;SDS011;5101;49.038;8.710;2023-02-11T15:05:56;14.00;;;12.13;;
10122;SDS011;5101;49.038;8.710;2023-02-11T15:08:30;14.55;;;12.38;;
10122;SDS011;5101;49.038;8.710;2023-02-11T15:10:57;14.57;;;12.18;;
10122;SDS011;5101;49.038;8.710;2023-02-11T15:13:26;14.65;;;11.82;;
10122;SDS011;5101;49.038;8.710;2023-02-11T15:16:05;15.02;;;12.20;;
10122;SDS011;5101;49.038;8.710;2023-02-11T15:18:36;16.85;;;11.73;;
10122;SDS011;5101;49.038;8.710;2023-02-11T15:21:06;14.00;;;12.20;;
10122;SDS011;5101;49.038;8.710;2023-02-11T15:23:32;14.77;;;12.40;;
10122;SDS011;5101;49.038;8.710;2023-02-11T15:25:58;15.88;;;12.48;;
10122;SDS011;5101;49.038;8.710;2023-02-11T15:28:29;13.82;;;12.35;;
10122;SDS011;5101;49.038;8.710;2023-02-11T15:31:31;14.68;;;12.07;;
10122;SDS011;5101;49.038;8.710;2023-02-11T15:33:51;15.77;;;13.00;;
10122;SDS011;5101;49.038;8.710;2023-02-11T15:36:19;15.73;;;12.50;;
10122;SDS011;5101;49.038;8.710;2023-02-11T15:41:40;16.15;;;12.88;;
10122;SDS011;5101;49.038;8.710;2023-02-11T15:44:24;16.38;;;13.30;;
10122;SDS011;5101;49.038;8.710;2023-02-11T15:46:54;14.32;;;12.68;;
10122;SDS011;5101;49.038;8.710;2023-02-11T15:49:20;15.45;;;13.02;;
10122;SDS011;5101;49.038;8.710;2023-02-11T15:51:47;16.83;;;13.43;;
10122;SDS011;5101;49.038;8.710;2023-02-11T15:54:21;15.93;;;12.57;;
10122;SDS011;5101;49.038;8.710;2023-02-11T15:56:50;16.40;;;13.05;;
10122;SDS011;5101;49.038;8.710;2023-02-11T15:59:30;14.95;;;13.32;;
10122;SDS011;5101;49.038;8.710;2023-02-11T16:02:08;20.38;;;12.77;;
10122;SDS011;5101;49.038;8.710;2023-02-11T16:04:46;15.05;;;13.00;;
10122;SDS011;5101;49.038;8.710;2023-02-11T16:10:15;16.33;;;12.55;;
10122;SDS011;5101;49.038;8.710;2023-02-11T16:15:40;16.98;;;13.13;;
10122;SDS011;5101;49.038;8.710;2023-02-11T16:18:22;16.67;;;13.13;;
10122;SDS011;5101;49.038;8.710;2023-02-11T16:20:50;14.18;;;12.07;;
10122;SDS011;5101;49.038;8.710;2023-02-11T16:23:21;15.45;;;13.18;;
10122;SDS011;5101;49.038;8.710;2023-02-11T16:26:02;13.60;;;12.18;;
10122;SDS011;5101;49.038;8.710;2023-02-11T16:28:32;16.52;;;13.23;;
10122;SDS011;5101;49.038;8.710;2023-02-11T16:30:58;15.02;;;13.40;;
10122;SDS011;5101;49.038;8.710;2023-02-11T16:33:24;17.55;;;12.52;;
10122;SDS011;5101;49.038;8.710;2023-02-11T16:35:49;16.23;;;11.93;;
10122;SDS011;5101;49.038;8.710;2023-02-11T16:38:16;14.63;;;12.07;;
10122;SDS011;5101;49.038;8.710;2023-02-11T16:40:41;15.43;;;12.25;;
10122;SDS011;5101;49.038;8.710;2023-02-11T16:43:08;13.50;;;11.82;;
10122;SDS011;5101;49.038;8.710;2023-02-11T16:45:37;13.57;;;12.18;;
10122;SDS011;5101;49.038;8.710;2023-02-11T16:48:06;16.73;;;12.95;;
10122;SDS011;5101;49.038;8.710;2023-02-11T16:50:33;15.20;;;12.13;;
10122;SDS011;5101;49.038;8.710;2023-02-11T16:52:59;15.43;;;12.80;;
10122;SDS011;5101;49.038;8.710;2023-02-11T16:55:26;12.75;;;11.40;;
10122;SDS011;5101;49.038;8.710;2023-02-11T16:57:52;15.75;;;13.63;;
10122;SDS011;5101;49.038;8.710;2023-02-11T17:00:17;15.70;;;13.43;;
10122;SDS011;5101;49.038;8.710;2023-02-11T17:02:46;19.15;;;14.77;;
10122;SDS011;5101;49.038;8.710;2023-02-11T17:05:19;16.73;;;13.85;;
10122;SDS011;5101;49.038;8.710;2023-02-11T17:07:50;17.20;;;13.90;;
10122;SDS011;5101;49.038;8.710;2023-02-11T17:10:18;16.30;;;14.43;;
10122;SDS011;5101;49.038;8.710;2023-02-11T17:12:45;17.48;;;14.38;;
10122;SDS011;5101;49.038;8.710;2023-02-11T17:15:12;16.73;;;14.23;;